Time;durP1;ratioP1;P1;durP2;ratioP2;P2;SDS_P1;SDS_P2;PMS_P1;PMS_P2;Temp;Humidity;BMP_temperature;BMP_pressure;BME280_temperature;BME280_humidity;BME280_pressure;Samples;Min_cycle;Max_cycle;Signal;HPM_P1;HPM_P2
2024/01/11 00:01:20;;;;;;;58.63;22.63;;;;;;;-144.05;59.36;57137.69;5011524;28;20040;-78
2024/01/11 00:03:46;;;;;;;53.75;22.85;;;;;;;-144.05;59.73;57141.94;5011509;28;20030;-77
2024/01/11 00:06:12;;;;;;;51.63;24.27;;;;;;;-144.05;59.92;57158.94;5012187;28;20068;-76
2024/01/11 00:08:38;;;;;;;52.17;23.08;;;;;;;-144.05;60.17;57150.44;5019560;28;20514;-75
2024/01/11 00:11:05;;;;;;;48.88;21.58;;;;;;;-144.05;60.42;57146.19;5011901;28;20087;-77
2024/01/11 00:13:31;;;;;;;62.42;27.20;;;;;;;-144.05;60.95;57116.47;5011450;28;20422;-77
2024/01/11 00:15:57;;;;;;;55.05;23.20;;;;;;;-144.05;60.79;57129.22;5011544;28;20083;-78
2024/01/11 00:18:23;;;;;;;59.58;23.33;;;;;;;-144.05;60.43;57156.81;5042901;28;20029;-78
2024/01/11 00:20:50;;;;;;;56.80;24.20;;;;;;;-144.05;60.53;57139.81;5013267;28;20499;-76
2024/01/11 00:23:16;;;;;;;50.42;23.02;;;;;;;-144.05;60.45;57154.69;5014608;28;20488;-79
2024/01/11 00:25:42;;;;;;;57.58;22.27;;;;;;;-144.05;60.39;57144.06;5014133;28;20037;-77
2024/01/11 00:28:08;;;;;;;52.13;23.13;;;;;;;-144.05;60.78;57131.31;5026453;28;20373;-78
2024/01/11 00:30:34;;;;;;;58.90;25.67;;;;;;;-144.05;61.92;57163.19;5013977;28;20040;-77
2024/01/11 00:33:00;;;;;;;59.10;26.27;;;;;;;-144.05;61.04;57112.22;5013891;28;20034;-78
2024/01/11 00:35:27;;;;;;;102.80;37.28;;;;;;;-144.05;60.60;57141.94;5014304;28;20519;-76
2024/01/11 00:37:53;;;;;;;140.35;44.78;;;;;;;-144.05;61.05;57148.31;5013503;28;20030;-78
2024/01/11 00:40:19;;;;;;;86.22;35.00;;;;;;;-144.05;60.99;57156.81;5014818;28;20080;-78
2024/01/11 00:42:45;;;;;;;72.65;28.65;;;;;;;-144.05;60.97;57152.56;5014604;28;20525;-77
2024/01/11 00:45:12;;;;;;;61.83;26.83;;;;;;;-144.05;61.25;57165.31;5014413;28;20060;-76
2024/01/11 00:47:38;;;;;;;66.63;26.27;;;;;;;-144.05;61.50;57161.06;5016642;28;20033;-76
2024/01/11 00:50:05;;;;;;;59.85;26.73;;;;;;;-144.05;61.67;57144.06;5038082;28;20343;-76
2024/01/11 00:52:31;;;;;;;59.38;26.17;;;;;;;-144.05;62.39;57161.06;5017728;28;20044;-78
2024/01/11 00:54:57;;;;;;;61.50;25.42;;;;;;;-144.05;62.33;57178.06;5013806;28;20032;-78
2024/01/11 00:57:24;;;;;;;57.28;23.73;;;;;;;-144.05;61.96;57120.72;5013399;28;20041;-78
2024/01/11 00:59:50;;;;;;;55.13;23.75;;;;;;;-144.05;61.84;57144.06;5014075;28;20524;-77
2024/01/11 01:02:16;;;;;;;54.97;24.88;;;;;;;-144.05;61.85;57139.81;5013851;28;20054;-77
2024/01/11 01:04:42;;;;;;;59.38;24.45;;;;;;;-144.05;62.14;57163.19;5013772;28;20021;-77
2024/01/11 01:07:08;;;;;;;49.72;21.85;;;;;;;-144.05;60.94;57127.09;5013964;28;20057;-77
2024/01/11 01:09:35;;;;;;;58.40;23.77;;;;;;;-144.05;62.09;57144.06;5013619;28;20025;-78
2024/01/11 01:12:01;;;;;;;51.17;22.80;;;;;;;-144.05;62.34;57154.69;5014191;28;20026;-78
2024/01/11 01:14:27;;;;;;;61.55;23.02;;;;;;;-144.05;62.71;57180.19;5013771;28;20034;-78
2024/01/11 01:16:54;;;;;;;57.17;24.35;;;;;;;-144.05;62.98;57167.44;5013419;28;20558;-79
2024/01/11 01:19:20;;;;;;;54.63;22.10;;;;;;;-144.05;62.97;57180.19;5045024;28;20122;-77
2024/01/11 01:21:46;;;;;;;51.85;22.83;;;;;;;-144.05;63.03;57156.81;5014223;28;20048;-76
2024/01/11 01:24:12;;;;;;;53.40;24.02;;;;;;;-144.05;62.94;57154.69;5013705;28;20101;-76
2024/01/11 01:26:39;;;;;;;54.65;22.80;;;;;;;-144.05;63.48;57195.06;5013217;28;20048;-78
2024/01/11 01:29:05;;;;;;;57.63;25.52;;;;;;;-144.05;63.27;57175.94;5013581;28;20036;-78
2024/01/11 01:31:37;;;;;;;56.63;23.90;;;;;;;-144.05;63.20;57180.19;5026107;28;20061;-77
2024/01/11 01:34:04;;;;;;;58.78;23.75;;;;;;;-144.05;63.65;57178.06;5012997;28;20037;-77
2024/01/11 01:36:31;;;;;;;48.97;23.80;;;;;;;-144.05;64.03;57184.44;5011676;28;20505;-78
2024/01/11 01:38:57;;;;;;;50.00;22.65;;;;;;;-144.05;63.92;57169.56;5013240;28;20499;-75
2024/01/11 01:41:23;;;;;;;56.88;24.25;;;;;;;-144.05;64.23;57192.94;5013144;28;20056;-78
2024/01/11 01:43:49;;;;;;;52.97;23.55;;;;;;;-144.05;64.35;57182.31;5013276;28;20049;-77
2024/01/11 01:46:24;;;;;;;52.35;22.73;;;;;;;-144.05;63.99;57167.44;5013334;28;20057;-75
2024/01/11 01:48:53;;;;;;;59.35;22.85;;;;;;;-144.05;64.09;57167.44;5007066;28;20117;-76
2024/01/11 01:51:22;;;;;;;49.78;21.00;;;;;;;-144.05;63.94;57161.06;5013165;28;20426;-78
2024/01/11 01:53:53;;;;;;;54.53;22.88;;;-6.40;99.90;;;-144.05;63.94;57154.69;5005839;28;20041;-77
2024/01/11 01:56:21;;;;;;;52.30;21.77;;;-5.80;99.90;;;-144.05;64.11;57197.19;5013188;28;20536;-78
2024/01/11 01:58:53;;;;;;;55.33;23.55;;;;;;;-144.05;64.24;57197.19;5001821;28;20033;-78
2024/01/11 02:01:22;;;;;;;50.88;22.83;;;-6.50;99.90;;;-144.05;64.31;57161.06;5010162;28;20026;-76
2024/01/11 02:03:54;;;;;;;56.88;24.92;;;-9.20;99.90;;;-144.05;64.23;57161.06;5006217;28;20026;-77
2024/01/11 02:06:25;;;;;;;52.83;23.10;;;;;;;-144.05;64.57;57182.31;5012701;28;20138;-78
2024/01/11 02:08:55;;;;;;;48.17;21.98;;;-9.40;99.90;;;-144.05;64.53;57152.56;5006403;28;20077;-77
2024/01/11 02:11:23;;;;;;;55.67;23.42;;;;;;;-144.05;64.46;57167.44;5018668;28;20041;-76
2024/01/11 02:13:53;;;;;;;54.83;24.13;;;-9.70;99.90;;;-144.05;64.58;57180.19;5013259;28;20029;-77
2024/01/11 02:16:19;;;;;;;58.38;23.67;;;;;;;-144.05;64.87;57184.44;5012830;28;20029;-77
2024/01/11 02:18:46;;;;;;;59.22;24.00;;;;;;;-144.05;64.84;57173.81;5012047;28;20100;-77
2024/01/11 02:21:17;;;;;;;56.45;23.60;;;;;;;-144.05;65.43;57186.56;5012479;28;20037;-78
2024/01/11 02:24:05;;;;;;;60.33;25.80;;;-9.90;99.90;;;-144.05;65.36;57173.81;5021536;28;20044;-75
2024/01/11 02:26:32;;;;;;;58.63;25.98;;;;;;;-144.05;65.15;57146.19;5011700;28;20080;-77
2024/01/11 02:28:58;;;;;;;64.90;24.58;;;;;;;-144.05;65.38;57197.19;5012333;28;20044;-77
2024/01/11 02:31:25;;;;;;;58.88;26.45;;;;;;;-144.05;65.59;57188.69;5012533;28;20473;-77
2024/01/11 02:33:56;;;;;;;62.60;26.05;;;-9.00;99.90;;;-144.05;65.68;57141.94;5011900;28;20018;-78
2024/01/11 02:36:24;;;;;;;54.30;24.55;;;;;;;-144.05;65.90;57188.69;5025475;28;20136;-78
2024/01/11 02:38:53;;;;;;;65.15;25.98;;;-6.40;99.90;;;-144.05;65.88;57137.69;5012033;28;20026;-76
2024/01/11 02:41:20;;;;;;;63.67;28.00;;;;;;;-144.05;65.94;57178.06;5012079;28;20057;-77
2024/01/11 02:43:49;;;;;;;67.60;27.92;;;-9.20;99.90;;;-144.05;66.12;57163.19;5010671;28;20038;-77
2024/01/11 02:46:17;;;;;;;56.53;24.90;;;;;;;-144.05;66.38;57175.94;5011948;28;20079;-75
2024/01/11 02:48:43;;;;;;;66.25;26.88;;;;;;;-144.05;66.51;57173.81;5011302;28;20056;-78
2024/01/11 02:51:09;;;;;;;59.50;25.63;;;;;;;-144.05;66.56;57137.69;5011680;28;20109;-79
2024/01/11 02:53:35;;;;;;;63.33;25.95;;;;;;;-144.05;66.53;57133.44;5010965;28;20026;-77
2024/01/11 02:56:02;;;;;;;66.65;27.52;;;;;;;-144.05;66.78;57195.06;5011729;28;20133;-78
2024/01/11 02:58:28;;;;;;;56.08;24.42;;;;;;;-144.05;66.72;57148.31;5011456;28;20064;-77
2024/01/11 03:00:55;;;;;;;61.78;23.92;;;;;;;-144.05;66.45;57156.81;5011198;28;20127;-78
2024/01/11 03:03:21;;;;;;;54.72;25.98;;;;;;;-144.05;66.41;57169.56;5011053;28;20395;-77
2024/01/11 03:05:47;;;;;;;64.68;26.92;;;;;;;-144.05;66.55;57156.81;5013200;28;20030;-77
2024/01/11 03:08:14;;;;;;;67.03;26.55;;;;;;;-144.05;66.71;57148.31;5011098;28;20022;-78
2024/01/11 03:10:40;;;;;;;61.70;25.75;;;;;;;-144.05;66.70;57188.69;5009670;28;20028;-76
2024/01/11 03:13:07;;;;;;;63.90;26.98;;;;;;;-144.05;66.43;57158.94;5010700;28;20395;-76
2024/01/11 03:15:33;;;;;;;55.25;24.63;;;;;;;-144.05;66.36;57156.81;5010902;28;20049;-76
2024/01/11 03:18:00;;;;;;;48.15;22.13;;;;;;;-144.05;66.36;57169.56;5010845;28;20116;-76
2024/01/11 03:20:26;;;;;;;61.03;25.50;;;;;;;-144.05;66.40;57156.81;5011086;28;20049;-76
2024/01/11 03:22:52;;;;;;;60.97;25.05;;;;;;;-144.05;66.44;57152.56;5012802;28;20029;-76
2024/01/11 03:25:19;;;;;;;63.83;27.25;;;;;;;-144.05;66.31;57184.44;5011581;28;20127;-76
2024/01/11 03:27:45;;;;;;;61.85;24.90;;;;;;;-144.05;66.29;57165.31;5010892;28;20046;-77
2024/01/11 03:30:12;;;;;;;57.38;24.50;;;-6.10;99.90;;;-144.05;66.14;57146.19;5011222;28;20068;-77
2024/01/11 03:32:39;;;;;;;60.35;26.02;;;;;;;-144.05;66.41;57154.69;5024996;28;20120;-78
2024/01/11 03:35:08;;;;;;;61.60;25.90;;;-8.80;99.90;;;-144.05;66.19;57144.06;5017854;28;20030;-76
2024/01/11 03:37:35;;;;;;;60.42;23.95;;;;;;;-144.05;66.50;57158.94;5010889;28;20030;-77
2024/01/11 03:40:03;;;;;;;67.50;28.02;;;;;;;-144.05;66.66;57195.06;5010877;28;20038;-77
2024/01/11 03:42:30;;;;;;;62.97;26.92;;;;;;;-144.05;66.71;57144.06;5010634;28;20037;-76
2024/01/11 03:44:56;;;;;;;65.07;28.45;;;;;;;-144.05;66.81;57180.19;5011056;28;20037;-75
2024/01/11 03:47:22;;;;;;;61.35;27.20;;;;;;;-144.05;67.11;57144.06;5010756;28;20033;-77
2024/01/11 03:49:48;;;;;;;58.90;26.40;;;;;;;-144.05;67.22;57195.06;5011162;28;20022;-77
2024/01/11 03:52:15;;;;;;;64.40;28.00;;;;;;;-144.05;67.19;57192.94;5011244;28;20034;-77
2024/01/11 03:54:41;;;;;;;63.22;29.77;;;;;;;-144.05;67.23;57173.81;5016841;28;20476;-78
2024/01/11 03:57:07;;;;;;;67.15;27.35;;;;;;;-144.05;66.97;57148.31;5022483;28;20041;-78
2024/01/11 03:59:34;;;;;;;63.50;27.55;;;;;;;-144.05;67.14;57180.19;5023207;28;20037;-78
2024/01/11 04:02:01;;;;;;;62.70;25.98;;;;;;;-144.05;67.49;57133.44;5026797;28;20064;-78
2024/01/11 04:04:27;;;;;;;70.65;30.10;;;;;;;-144.05;67.74;57161.06;5015650;28;20432;-78
2024/01/11 04:06:53;;;;;;;69.30;29.05;;;;;;;-144.05;67.56;57184.44;5014326;28;20431;-78
2024/01/11 04:09:22;;;;;;;61.60;26.85;;;;;;;-144.05;67.39;57173.81;5015886;28;20065;-78
2024/01/11 04:11:48;;;;;;;66.18;28.00;;;;;;;-144.05;67.85;57161.06;5009465;28;20029;-77
2024/01/11 04:14:15;;;;;;;65.38;28.85;;;;;;;-144.05;67.56;57122.84;5014951;28;20037;-76
2024/01/11 04:16:42;;;;;;;62.60;26.02;;;-6.20;99.90;;;-144.05;66.68;57116.47;5014619;28;20029;-76
2024/01/11 04:19:09;;;;;;;56.80;24.50;;;;;;;-144.05;66.25;57188.69;5014432;28;20033;-74
2024/01/11 04:21:38;;;;;;;68.18;26.10;;;;;;;-144.05;65.84;57150.44;5013499;28;20030;-77
2024/01/11 04:24:06;;;;;;;59.58;25.85;;;;;;;-144.05;65.54;57167.44;5014567;28;20033;-77
2024/01/11 04:26:32;;;;;;;62.40;25.88;;;;;;;-144.05;65.41;57182.31;5011457;28;20515;-75
2024/01/11 04:28:59;;;;;;;53.83;23.38;;;;;;;-144.05;65.50;57175.94;5014115;28;20037;-77
2024/01/11 04:31:26;;;;;;;63.00;26.48;;;;;;;-144.05;65.43;57150.44;5015030;28;20108;-77
2024/01/11 04:33:53;;;;;;;58.08;24.67;;;;;;;-144.05;65.77;57195.06;5013774;28;20026;-77
2024/01/11 04:36:19;;;;;;;59.95;26.05;;;;;;;-144.05;65.80;57165.31;5014025;28;20063;-77
2024/01/11 04:38:45;;;;;;;61.28;26.88;;;;;;;-144.05;66.17;57180.19;5016634;28;20101;-76
2024/01/11 04:41:14;;;;;;;60.28;23.95;;;-6.30;99.90;;;-144.05;66.46;57212.03;5023414;28;20111;-77
2024/01/11 04:43:45;;;;;;;54.78;24.85;;;-10.00;99.90;;;-144.05;66.31;57186.56;5029119;28;20029;-77
2024/01/11 04:46:22;;;;;;;57.95;24.33;;;-5.70;99.90;;;-144.05;66.12;57165.31;5014406;28;20389;-76
2024/01/11 04:48:50;;;;;;;59.67;25.83;;;;;;;-144.05;65.93;57169.56;5005803;28;20479;-75
2024/01/11 04:51:18;;;;;;;62.08;26.75;;;-6.30;99.90;;;-144.05;66.34;57209.91;5013836;28;20033;-77
2024/01/11 04:53:46;;;;;;;63.38;26.30;;;;;;;-144.05;66.05;57152.56;5012480;28;20052;-75
2024/01/11 04:56:16;;;;;;;65.05;26.83;;;;;;;-144.05;66.06;57178.06;5012094;28;20049;-77
2024/01/11 04:58:44;;;;;;;73.13;28.00;;;;;;;-144.05;66.38;57178.06;5015843;28;20482;-77
2024/01/11 05:01:16;;;;;;;60.90;25.50;;;;;;;-144.05;66.35;57169.56;5017111;28;20030;-77
2024/01/11 05:03:45;;;;;;;59.08;25.30;;;-7.10;99.90;;;-144.05;66.50;57165.31;5013180;28;20037;-77
2024/01/11 05:06:20;;;;;;;69.45;27.20;;;-6.00;99.90;;;-144.05;66.65;57165.31;5023681;28;20031;-75
2024/01/11 05:08:53;;;;;;;65.78;26.60;;;;;;;-144.05;66.51;57220.53;5012097;28;20464;-75
2024/01/11 05:11:24;;;;;;;60.58;25.77;;;-9.60;99.90;;;-144.05;66.69;57182.31;5013524;28;20333;-78
2024/01/11 05:13:51;;;;;;;59.15;25.00;;;-9.70;99.90;;;-144.05;66.72;57188.69;5013120;28;20029;-78
2024/01/11 05:16:39;;;;;;;66.15;27.77;;;;;;;-144.05;66.85;57188.69;5011639;28;20030;-77
2024/01/11 05:19:05;;;;;;;63.17;26.95;;;;;;;-144.05;66.98;57146.19;5012950;28;20045;-75
2024/01/11 05:21:31;;;;;;;62.88;26.35;;;;;;;-144.05;66.90;57156.81;5013043;28;20033;-77
2024/01/11 05:23:57;;;;;;;64.63;26.05;;;;;;;-144.05;67.09;57152.56;5013069;28;20026;-77
2024/01/11 05:26:23;;;;;;;65.05;27.17;;;;;;;-144.05;67.10;57175.94;5012840;28;20030;-77
2024/01/11 05:28:50;;;;;;;68.10;27.90;;;;;;;-144.05;67.40;57137.69;5012979;28;20025;-76
2024/01/11 05:31:16;;;;;;;63.08;28.20;;;;;;;-144.05;67.33;57165.31;5011707;28;20506;-77
2024/01/11 05:33:42;;;;;;;65.00;26.95;;;;;;;-144.05;67.42;57178.06;5027673;28;20121;-77
2024/01/11 05:36:09;;;;;;;71.07;28.85;;;;;;;-144.05;67.83;57141.94;5023948;28;20038;-77
2024/01/11 05:38:35;;;;;;;77.53;29.20;;;;;;;-144.05;68.12;57192.94;5014854;28;20029;-78
2024/01/11 05:41:02;;;;;;;66.05;28.33;;;;;;;-144.05;67.98;57165.31;5015436;28;20081;-77
2024/01/11 05:43:28;;;;;;;72.68;29.52;;;;;;;-144.05;67.79;57154.69;5016052;28;20033;-78
2024/01/11 05:45:54;;;;;;;65.55;28.95;;;;;;;-144.05;67.61;57146.19;5016453;28;20021;-77
2024/01/11 05:48:21;;;;;;;68.38;28.10;;;;;;;-144.05;67.98;57156.81;5014854;28;20034;-76
2024/01/11 05:50:47;;;;;;;72.50;30.52;;;;;;;-144.05;67.89;57150.44;5014737;28;20038;-79
2024/01/11 05:53:14;;;;;;;60.65;26.50;;;;;;;-144.05;67.72;57158.94;5015808;28;20100;-78
2024/01/11 05:55:40;;;;;;;65.03;27.17;;;;;;;-144.05;67.66;57169.56;5013989;28;20034;-77
2024/01/11 05:58:06;;;;;;;68.45;28.35;;;;;;;-144.05;67.81;57173.81;5014628;28;20090;-76
2024/01/11 06:00:33;;;;;;;68.80;29.63;;;;;;;-144.05;67.49;57161.06;5014636;28;20105;-76
2024/01/11 06:02:59;;;;;;;60.53;27.38;;;;;;;-144.05;67.49;57184.44;5014667;28;20036;-76
2024/01/11 06:05:26;;;;;;;77.25;29.70;;;;;;;-144.05;67.76;57163.19;5013819;28;20030;-76
2024/01/11 06:07:52;;;;;;;65.75;27.73;;;;;;;-144.05;66.80;57167.44;5014548;28;20537;-76
2024/01/11 06:10:18;;;;;;;68.50;27.48;;;;;;;-144.05;67.66;57182.31;5012854;28;20083;-77
2024/01/11 06:12:44;;;;;;;67.38;27.17;;;;;;;-144.05;67.86;57175.94;5013960;28;20160;-76
2024/01/11 06:15:11;;;;;;;69.25;27.23;;;;;;;-144.05;67.54;57182.31;5012360;28;20457;-77
2024/01/11 06:17:37;;;;;;;72.57;30.48;;;;;;;-144.05;68.17;57150.44;5011668;28;20034;-76
2024/01/11 06:20:05;;;;;;;68.20;28.88;;;;;;;-144.05;67.71;57141.94;5012663;28;20109;-78
2024/01/11 06:22:31;;;;;;;64.18;29.08;;;;;;;-144.05;67.24;57144.06;5012713;28;20021;-78
2024/01/11 06:24:59;;;;;;;72.07;28.10;;;;;;;-144.05;66.74;57127.09;5012879;28;20079;-78
2024/01/11 06:27:25;;;;;;;63.15;28.45;;;;;;;-144.05;66.73;57127.09;5012593;28;20048;-76
2024/01/11 06:29:52;;;;;;;76.05;29.25;;;;;;;-144.05;65.53;57161.06;5012324;28;20030;-76
2024/01/11 06:32:18;;;;;;;67.43;26.98;;;;;;;-144.05;65.17;57167.44;5012447;28;20124;-77
2024/01/11 06:34:45;;;;;;;66.18;28.17;;;;;;;-144.05;65.33;57178.06;5011681;28;20503;-76
2024/01/11 06:37:12;;;;;;;62.90;27.60;;;;;;;-144.05;65.63;57137.69;5012194;28;20117;-77
2024/01/11 06:39:38;;;;;;;68.72;27.23;;;;;;;-144.05;65.36;57141.94;5013932;28;20438;-76
2024/01/11 06:42:05;;;;;;;66.97;27.48;;;;;;;-144.05;65.26;57124.97;5012671;28;20398;-78
2024/01/11 06:44:31;;;;;;;62.10;26.23;;;;;;;-144.05;64.96;57178.06;5010798;28;20458;-78
2024/01/11 06:46:57;;;;;;;65.97;27.08;;;;;;;-144.05;64.96;57133.44;5012124;28;20038;-75
2024/01/11 06:49:23;;;;;;;63.08;27.90;;;;;;;-144.05;65.56;57154.69;5012304;28;20026;-75
2024/01/11 06:51:49;;;;;;;66.60;27.48;;;;;;;-144.05;65.56;57165.31;5014979;28;20032;-77
2024/01/11 06:54:16;;;;;;;66.60;28.38;;;;;;;-144.05;65.57;57158.94;5030134;28;20036;-74
2024/01/11 06:56:42;;;;;;;71.35;27.50;;;;;;;-144.05;65.99;57175.94;5027929;28;20097;-76
2024/01/11 06:59:08;;;;;;;71.40;28.48;;;;;;;-144.05;65.76;57154.69;5027421;28;20041;-76
2024/01/11 07:01:34;;;;;;;68.80;27.33;;;;;;;-144.05;65.43;57146.19;5028612;28;20034;-78
2024/01/11 07:04:01;;;;;;;130.43;54.75;;;;;;;-144.05;65.63;57178.06;5020951;28;20403;-76
2024/01/11 07:06:27;;;;;;;107.18;40.53;;;;;;;-144.05;65.65;57158.94;5012151;28;20029;-77
2024/01/11 07:08:53;;;;;;;92.80;39.97;;;;;;;-144.05;65.78;57161.06;5012365;28;20483;-77
2024/01/11 07:11:20;;;;;;;109.70;44.42;;;;;;;-144.05;66.04;57156.81;5012862;28;20033;-77
2024/01/11 07:13:46;;;;;;;103.40;42.30;;;;;;;-144.05;66.16;57161.06;5012507;28;20026;-79
2024/01/11 07:16:12;;;;;;;82.00;34.63;;;;;;;-144.05;66.23;57169.56;5010846;28;20042;-77
2024/01/11 07:18:38;;;;;;;70.70;30.23;;;;;;;-144.05;66.12;57150.44;5012575;28;20037;-78
2024/01/11 07:21:05;;;;;;;65.45;26.60;;;;;;;-144.05;65.88;57186.56;5027318;28;20103;-79
2024/01/11 07:23:31;;;;;;;66.82;28.50;;;;;;;-144.05;66.09;57180.19;5013530;28;20443;-78
2024/01/11 07:25:58;;;;;;;55.17;25.13;;;;;;;-144.05;66.14;57161.06;5019737;28;20146;-79
2024/01/11 07:28:25;;;;;;;60.30;25.77;;;;;;;-144.05;65.87;57169.56;5012469;28;20217;-77
2024/01/11 07:30:53;;;;;;;54.42;25.92;;;-6.70;99.90;;;-144.05;65.78;57169.56;5022184;28;20026;-79
2024/01/11 07:33:20;;;;;;;58.97;26.33;;;;;;;-144.05;65.60;57178.06;5013693;28;20450;-77
2024/01/11 07:35:47;;;;;;;57.60;25.70;;;;;;;-144.05;65.97;57116.47;5012045;28;20056;-77
2024/01/11 07:38:14;;;;;;;57.22;26.00;;;;;;;-144.05;66.04;57188.69;5012451;28;20408;-79
2024/01/11 07:40:40;;;;;;;59.10;25.80;;;;;;;-144.05;66.24;57182.31;5012390;28;20056;-80
2024/01/11 07:43:06;;;;;;;63.78;26.90;;;;;;;-144.05;66.28;57171.69;5012427;28;20392;-78
2024/01/11 07:45:32;;;;;;;63.90;25.77;;;;;;;-144.05;66.12;57141.94;5012578;28;20025;-77
2024/01/11 07:47:59;;;;;;;60.25;24.40;;;;;;;-144.05;66.09;57171.69;5013425;28;20112;-79
2024/01/11 07:50:25;;;;;;;89.10;28.92;;;;;;;-144.05;66.04;57135.56;5023097;28;20026;-77
2024/01/11 07:52:52;;;;;;;62.50;25.73;;;;;;;-144.05;66.36;57167.44;5012959;28;20030;-79
2024/01/11 07:55:18;;;;;;;66.15;30.00;;;;;;;-144.05;66.59;57192.94;5011598;28;20022;-76
2024/01/11 07:57:44;;;;;;;68.95;31.40;;;;;;;-144.05;66.34;57156.81;5012380;28;20056;-76
2024/01/11 08:00:11;;;;;;;75.95;33.40;;;;;;;-144.05;66.33;57184.44;5013214;28;20041;-79
2024/01/11 08:02:37;;;;;;;74.40;33.85;;;;;;;-144.05;66.19;57135.56;5012696;28;20121;-77
2024/01/11 08:05:04;;;;;;;82.45;35.22;;;;;;;-144.05;66.41;57144.06;5012235;28;20069;-79
2024/01/11 08:07:31;;;;;;;72.38;34.70;;;;;;;-144.05;66.36;57150.44;5012949;28;20033;-77
2024/01/11 08:09:57;;;;;;;76.38;35.08;;;;;;;-144.05;66.21;57173.81;5013622;28;20121;-78
2024/01/11 08:12:23;;;;;;;78.88;34.10;;;;;;;-144.05;66.04;57154.69;5012597;28;20060;-78
2024/01/11 08:14:50;;;;;;;80.70;36.08;;;;;;;-144.05;66.12;57163.19;5013359;28;20033;-77
2024/01/11 08:17:16;;;;;;;84.65;38.95;;;;;;;-144.05;65.59;57148.31;5013181;28;20056;-78
2024/01/11 08:19:42;;;;;;;83.25;38.40;;;;;;;-144.05;64.94;57141.94;5013079;28;20125;-78
2024/01/11 08:22:11;;;;;;;83.53;36.72;;;-5.60;99.90;;;-144.05;64.66;57112.22;5012998;28;20026;-77
2024/01/11 08:24:38;;;;;;;85.13;38.03;;;;;;;-144.05;63.72;57152.56;5012836;28;20018;-78
2024/01/11 08:27:04;;;;;;;75.22;33.47;;;;;;;-144.05;63.74;57118.59;5012891;28;20108;-78
2024/01/11 08:29:30;;;;;;;76.72;34.63;;;;;;;-144.05;63.64;57076.09;5028144;28;20026;-78
2024/01/11 08:31:57;;;;;;;75.68;33.20;;;;;;;-144.05;62.87;57107.97;5004495;28;20041;-79
2024/01/11 08:34:26;;;;;;;69.95;30.92;;;;;;;-144.05;62.33;57116.47;5012248;28;20037;-75
2024/01/11 08:36:52;;;;;;;69.15;30.90;;;;;;;-144.05;61.67;57120.72;5012214;28;20515;-79
2024/01/11 08:39:19;;;;;;;74.47;32.47;;;;;;;-144.05;61.07;57084.59;5012438;28;20049;-77
2024/01/11 08:41:45;;;;;;;72.65;32.22;;;;;;;-144.05;60.38;57103.72;5012663;28;20492;-75
2024/01/11 08:44:11;;;;;;;73.40;30.98;;;;;;;-144.05;60.32;57107.97;5015544;28;20026;-77
2024/01/11 08:46:37;;;;;;;70.03;31.45;;;;;;;-144.05;60.66;57073.97;5015727;28;20051;-76
2024/01/11 08:49:04;;;;;;;63.78;27.88;;;;;;;-144.05;60.33;57118.59;5015544;28;20029;-77
2024/01/11 08:51:32;;;;;;;70.03;31.00;;;;;;;-144.05;60.50;57090.97;5015298;28;20136;-76
2024/01/11 08:53:58;;;;;;;69.13;30.38;;;;;;;-144.05;60.04;57116.47;5007522;28;20268;-75
2024/01/11 08:56:25;;;;;;;76.32;32.30;;;;;;;-144.05;58.90;57118.59;5025158;28;20087;-76
2024/01/11 08:58:51;;;;;;;64.38;28.27;;;;;;;-144.05;58.81;57097.34;5015633;28;20030;-77
2024/01/11 09:01:18;;;;;;;74.53;33.10;;;;;;;-144.05;58.12;57093.09;5012569;28;20455;-77
2024/01/11 09:03:44;;;;;;;70.05;33.35;;;;;;;-144.05;57.27;57099.47;5016038;28;20104;-77
2024/01/11 09:06:11;;;;;;;69.03;31.98;;;;;;;-144.05;56.41;57080.34;5018566;28;20088;-77
2024/01/11 09:08:37;;;;;;;70.90;30.58;;;;;;;-144.05;55.65;57086.72;5015650;28;20029;-76
2024/01/11 09:11:03;;;;;;;61.13;30.52;;;;;;;-144.05;54.88;57073.97;5017832;28;20053;-76
2024/01/11 09:13:30;;;;;;;62.38;30.08;;;;;;;-144.05;55.16;57073.97;5012733;28;20113;-77
2024/01/11 09:15:56;;;;;;;65.65;29.40;;;;;;;-144.05;55.28;57095.22;5016976;28;20116;-77
2024/01/11 09:18:22;;;;;;;68.38;31.38;;;;;;;-144.05;55.06;57078.22;5015661;28;20040;-76
2024/01/11 09:20:48;;;;;;;67.93;30.33;;;;;;;-144.05;54.44;57084.59;5015617;28;20108;-76
2024/01/11 09:23:16;;;;;;;68.43;29.10;;;;;;;-144.05;53.79;57082.47;5015223;28;20030;-76
2024/01/11 09:25:42;;;;;;;65.35;30.05;;;;;;;-144.05;53.57;57065.47;5015871;28;20034;-77
2024/01/11 09:28:08;;;;;;;65.20;29.73;;;;;;;-144.05;53.43;57016.63;5016195;28;20053;-76
2024/01/11 09:30:34;;;;;;;64.32;30.98;;;;;;;-144.05;52.74;57078.22;5025068;28;20064;-79
2024/01/11 09:33:01;;;;;;;68.43;29.60;;;;;;;-144.05;51.86;57016.63;5014614;28;20034;-78
2024/01/11 09:35:27;;;;;;;62.05;29.23;;;;;;;-144.05;51.04;57031.50;5014486;28;20030;-76
2024/01/11 09:37:53;;;;;;;60.53;27.70;;;;;;;-144.05;50.82;57065.47;5014653;28;20495;-76
2024/01/11 09:40:20;;;;;;;63.22;29.90;;;;;;;-144.05;50.66;57078.22;5015926;28;20510;-77
2024/01/11 09:42:46;;;;;;;60.55;28.85;;;;;;;-144.05;50.50;57073.97;5014532;28;20032;-77
2024/01/11 09:45:17;;;;;;;58.08;28.17;;;-1.70;99.90;;;-144.05;50.95;57078.22;5019946;28;20030;-77
2024/01/11 09:47:46;;;;;;;70.35;30.17;;;-0.20;99.90;;;-144.05;50.43;57082.47;5044322;28;20026;-77
2024/01/11 09:50:19;;;;;;;62.65;28.95;;;-1.80;99.90;;;-144.05;49.79;57042.13;5030344;28;20048;-77
2024/01/11 09:52:48;;;;;;;65.10;29.67;;;-1.60;99.90;;;-144.05;49.74;57073.97;5028058;28;20018;-76
2024/01/11 09:55:16;;;;;;;69.30;29.92;;;;;;;-144.05;48.39;57052.75;5019847;28;20125;-74
2024/01/11 09:57:47;;;;;;;63.40;31.25;;;-1.00;99.90;;;-144.05;49.84;57063.34;5016545;28;20076;-79
2024/01/11 10:00:24;;;;;;;70.55;31.50;;;-1.20;99.90;;;-144.05;49.64;57046.38;5018511;28;20562;-76
2024/01/11 10:02:51;;;;;;;56.25;27.95;;;;;;;-144.05;49.56;57048.50;5012636;28;20089;-77
2024/01/11 10:05:18;;;;;;;71.47;31.88;;;;;;;-144.05;48.63;57056.97;5017261;28;20032;-79
2024/01/11 10:07:47;;;;;;;68.88;31.55;;;;;;;-144.05;48.22;57048.50;5015936;28;20026;-77
2024/01/11 10:10:17;;;;;;;69.63;34.72;;;;;;;-144.05;48.35;57040.00;5015493;28;20104;-77
2024/01/11 10:12:43;;;;;;;68.70;33.20;;;;;;;-144.05;49.09;57090.97;5014060;28;20034;-76
2024/01/11 10:15:10;;;;;;;69.50;33.53;;;-1.20;99.90;;;-144.05;48.83;57052.75;5017497;28;20076;-75
2024/01/11 10:17:45;;;;;;;68.00;32.00;;;0.80;99.90;;;-144.05;48.08;57046.38;5015266;28;20028;-77
2024/01/11 10:20:15;;;;;;;62.03;30.58;;;0.00;99.90;;;-144.05;47.52;57056.97;5017113;28;20065;-75
2024/01/11 10:22:41;;;;;;;64.28;29.73;;;;;;;-144.05;48.32;57031.50;5016204;28;20076;-77
2024/01/11 10:25:17;;;;;;;63.03;30.88;;;0.50;99.90;;;-144.05;47.74;57023.00;5014448;28;20030;-76
2024/01/11 10:27:45;;;;;;;51.67;26.23;;;;;;;-144.05;47.73;57020.88;5013710;28;20325;-77
2024/01/11 10:30:16;;;;;;;59.92;28.48;;;0.20;99.90;;;-144.05;46.92;57052.75;5009710;28;20560;-77
2024/01/11 10:32:46;;;;;;;59.30;27.95;;;;;;;-144.05;46.11;57008.13;5013214;28;20550;-75
2024/01/11 10:35:12;;;;;;;54.13;28.10;;;;;;;-144.05;45.88;57031.50;5014538;28;20113;-77
2024/01/11 10:37:39;;;;;;;56.95;27.33;;;;;;;-144.05;45.71;57042.13;5017842;28;20038;-78
2024/01/11 10:40:12;;;;;;;58.88;27.98;;;0.60;99.90;;;-144.05;45.83;57018.75;5014632;28;20030;-76
2024/01/11 10:42:51;;;;;;;54.35;26.52;;;0.00;99.90;;;-144.05;44.79;57012.38;5012518;28;20034;-75
2024/01/11 10:45:21;;;;;;;56.50;27.08;;;0.80;99.90;;;-144.05;45.56;57001.75;5014457;28;20022;-76
2024/01/11 10:48:04;;;;;;;54.53;26.35;;;0.70;99.90;;;-144.05;44.90;57065.47;5014060;28;20206;-78
2024/01/11 10:50:42;;;;;;;52.13;26.88;;;0.60;99.90;;;-144.05;44.68;57042.13;5012703;28;20030;-76